createdAt,value
2019-03-30T00:00:41.514Z,71.61
2019-03-30T00:03:07.822Z,71.68
2019-03-30T00:05:34.021Z,71.78
2019-03-30T00:08:00.356Z,71.81
2019-03-30T00:10:26.610Z,71.95
2019-03-30T00:12:52.811Z,72.26
2019-03-30T00:15:18.916Z,72.30
2019-03-30T00:17:45.587Z,72.56
2019-03-30T00:20:12.113Z,72.69
2019-03-30T00:22:38.403Z,72.69
2019-03-30T00:25:05.408Z,72.73
2019-03-30T00:27:31.499Z,72.86
2019-03-30T00:29:57.651Z,72.67
2019-03-30T00:32:23.830Z,72.79
2019-03-30T00:34:50.017Z,72.76
2019-03-30T00:37:16.166Z,72.78
2019-03-30T00:39:42.442Z,72.91
2019-03-30T00:42:08.627Z,72.82
2019-03-30T00:44:34.838Z,72.60
2019-03-30T00:47:00.954Z,72.46
2019-03-30T00:49:27.180Z,72.53
2019-03-30T00:51:53.286Z,72.36
2019-03-30T00:54:19.507Z,72.50
2019-03-30T00:56:45.606Z,72.78
2019-03-30T00:59:11.989Z,72.71
2019-03-30T01:01:38.444Z,72.81
2019-03-30T01:04:04.835Z,73.08
2019-03-30T01:06:31.094Z,73.08
2019-03-30T01:08:57.452Z,72.96
2019-03-30T01:11:23.781Z,72.88
2019-03-30T01:13:49.896Z,73.08
2019-03-30T01:16:16.234Z,72.89
2019-03-30T01:18:42.652Z,72.80
2019-03-30T01:21:08.871Z,73.03
2019-03-30T01:23:35.117Z,72.99
2019-03-30T01:26:01.374Z,73.04
2019-03-30T01:28:27.584Z,72.86
2019-03-30T01:30:53.754Z,72.85
2019-03-30T01:33:19.970Z,72.84
2019-03-30T01:35:46.072Z,72.84
2019-03-30T01:38:12.458Z,73.09
2019-03-30T01:40:38.728Z,73.04
2019-03-30T01:43:05.160Z,73.28
2019-03-30T01:45:31.317Z,73.34
2019-03-30T01:47:57.578Z,73.50
2019-03-30T01:50:23.742Z,73.71
2019-03-30T01:52:49.934Z,73.81
2019-03-30T01:55:16.175Z,73.88
2019-03-30T01:57:42.335Z,74.09
2019-03-30T02:00:10.023Z,74.12
2019-03-30T02:02:36.287Z,74.13
2019-03-30T02:05:04.609Z,74.35
2019-03-30T02:07:30.802Z,74.50
2019-03-30T02:09:56.986Z,74.48
2019-03-30T02:12:23.133Z,74.58
2019-03-30T02:14:49.394Z,74.73
2019-03-30T02:17:15.521Z,74.64
2019-03-30T02:19:41.938Z,74.68
2019-03-30T02:22:08.159Z,74.50
2019-03-30T02:24:34.411Z,74.54
2019-03-30T02:27:00.535Z,74.66
2019-03-30T02:29:26.885Z,74.91
2019-03-30T02:31:53.054Z,75.05
2019-03-30T02:34:19.249Z,75.36
2019-03-30T02:36:45.441Z,75.14
2019-03-30T02:39:12.037Z,75.28
2019-03-30T02:41:38.222Z,75.58
2019-03-30T02:44:04.456Z,75.50
2019-03-30T02:46:30.594Z,75.80
2019-03-30T02:48:56.924Z,75.67
2019-03-30T02:51:23.033Z,75.76
2019-03-30T02:53:49.270Z,75.73
2019-03-30T02:56:15.390Z,75.63
2019-03-30T02:58:41.626Z,75.30
2019-03-30T03:01:07.899Z,74.99
2019-03-30T03:03:34.060Z,75.11
2019-03-30T03:06:00.333Z,74.93
2019-03-30T03:08:26.470Z,74.65
2019-03-30T03:10:52.746Z,74.59
2019-03-30T03:13:18.859Z,74.22
2019-03-30T03:15:45.080Z,74.12
2019-03-30T03:18:11.287Z,74.21
2019-03-30T03:20:37.584Z,74.19
2019-03-30T03:23:03.779Z,74.20
2019-03-30T03:25:30.051Z,74.24
2019-03-30T03:27:56.313Z,74.00
2019-03-30T03:30:22.695Z,73.87
2019-03-30T03:32:48.899Z,73.69
2019-03-30T03:35:15.051Z,73.64
2019-03-30T03:37:45.472Z,73.58
2019-03-30T03:40:09.576Z,73.44
2019-03-30T03:42:35.829Z,73.45
2019-03-30T03:45:03.941Z,73.53
2019-03-30T03:47:30.180Z,73.54
2019-03-30T03:49:56.306Z,73.46
2019-03-30T03:52:22.743Z,73.48
2019-03-30T03:54:49.742Z,73.43
2019-03-30T03:57:17.908Z,73.37
2019-03-30T03:59:47.631Z,73.27
2019-03-30T04:02:15.836Z,73.29
2019-03-30T04:04:47.376Z,73.21
2019-03-30T04:07:12.529Z,73.22
2019-03-30T04:09:42.498Z,73.25
2019-03-30T04:12:11.769Z,73.31
2019-03-30T04:14:41.844Z,73.28
2019-03-30T04:17:08.584Z,73.48
2019-03-30T04:19:34.728Z,73.75
2019-03-30T04:22:00.888Z,73.81
2019-03-30T04:24:27.068Z,73.85
2019-03-30T04:26:53.250Z,73.99
2019-03-30T04:29:19.406Z,73.98
2019-03-30T04:31:45.687Z,74.02
2019-03-30T04:34:11.931Z,74.01
2019-03-30T04:36:38.403Z,73.98
2019-03-30T04:39:04.890Z,74.05
2019-03-30T04:41:31.281Z,74.06
2019-03-30T04:43:57.577Z,73.95
2019-03-30T04:46:23.722Z,74.02
2019-03-30T04:48:49.953Z,74.03
2019-03-30T04:51:16.065Z,74.21
2019-03-30T04:53:42.285Z,74.11
2019-03-30T04:56:08.426Z,74.19
2019-03-30T04:58:34.661Z,74.25
2019-03-30T05:01:00.840Z,74.14
2019-03-30T05:03:27.004Z,74.35
2019-03-30T05:05:53.266Z,74.45
2019-03-30T05:08:19.543Z,74.35
2019-03-30T05:10:46.941Z,74.50
2019-03-30T05:13:13.180Z,74.19
2019-03-30T05:15:39.288Z,73.83
2019-03-30T05:18:05.521Z,73.81
2019-03-30T05:20:31.708Z,73.63
2019-03-30T05:22:57.985Z,73.50
2019-03-30T05:25:24.221Z,73.48
2019-03-30T05:27:50.376Z,73.64
2019-03-30T05:30:16.764Z,73.79
2019-03-30T05:32:43.010Z,73.78
2019-03-30T05:35:09.399Z,73.49
2019-03-30T05:37:35.561Z,73.67
2019-03-30T05:40:02.511Z,73.51
2019-03-30T05:42:28.870Z,73.32
2019-03-30T05:44:57.791Z,73.24
2019-03-30T05:47:23.381Z,73.11
2019-03-30T05:49:49.663Z,72.77
2019-03-30T05:52:26.349Z,72.80
2019-03-30T05:54:43.989Z,72.74
2019-03-30T05:57:10.249Z,72.89
2019-03-30T05:59:36.432Z,72.86
2019-03-30T06:02:02.692Z,72.58
2019-03-30T06:04:28.875Z,72.72
2019-03-30T06:06:55.150Z,72.42
2019-03-30T06:09:21.293Z,72.57
2019-03-30T06:11:47.541Z,72.74
2019-03-30T06:14:13.719Z,72.83
2019-03-30T06:16:40.043Z,72.56
2019-03-30T06:19:06.210Z,72.48
2019-03-30T06:21:32.542Z,72.35
2019-03-30T06:23:58.878Z,72.34
2019-03-30T06:26:25.254Z,71.91
2019-03-30T06:28:51.425Z,72.15
2019-03-30T06:31:17.725Z,72.27
2019-03-30T06:33:43.871Z,72.48
2019-03-30T06:36:10.242Z,72.47
2019-03-30T06:38:36.491Z,72.25
2019-03-30T06:41:02.937Z,71.88
2019-03-30T06:43:29.183Z,72.28
2019-03-30T06:45:55.538Z,72.27
2019-03-30T06:48:21.799Z,72.04
2019-03-30T06:50:47.930Z,71.71
2019-03-30T06:53:14.247Z,71.96
2019-03-30T06:55:40.500Z,71.88
2019-03-30T06:58:07.944Z,71.79
2019-03-30T07:00:34.679Z,71.48
2019-03-30T07:03:03.574Z,71.16
2019-03-30T07:05:39.783Z,70.82
2019-03-30T07:08:09.878Z,70.55
2019-03-30T07:10:38.471Z,70.53
2019-03-30T07:13:04.875Z,70.46
2019-03-30T07:15:31.440Z,69.83
2019-03-30T07:17:59.450Z,69.43
2019-03-30T07:20:28.892Z,68.93
2019-03-30T07:22:55.373Z,69.14
2019-03-30T07:25:21.548Z,68.94
2019-03-30T07:27:47.706Z,68.60
2019-03-30T07:30:13.982Z,68.46
2019-03-30T07:32:40.255Z,68.50
2019-03-30T07:35:06.564Z,68.53
2019-03-30T07:37:33.816Z,67.86
2019-03-30T07:40:00.343Z,67.46
2019-03-30T07:42:26.545Z,67.21
2019-03-30T07:44:52.997Z,67.19
2019-03-30T07:47:19.292Z,66.89
2019-03-30T07:49:45.661Z,66.82
2019-03-30T07:52:14.613Z,66.66
2019-03-30T07:54:40.956Z,66.67
2019-03-30T07:57:16.525Z,66.84
2019-03-30T07:59:35.363Z,66.95
2019-03-30T08:02:01.538Z,66.09
2019-03-30T08:04:28.825Z,65.99
2019-03-30T08:06:55.132Z,65.77
2019-03-30T08:09:21.349Z,65.85
2019-03-30T08:11:47.572Z,65.38
2019-03-30T08:14:13.823Z,65.87
2019-03-30T08:16:39.986Z,66.10
2019-03-30T08:19:06.363Z,65.03
2019-03-30T08:21:32.663Z,65.40
2019-03-30T08:23:58.947Z,65.00
2019-03-30T08:26:25.237Z,64.90
2019-03-30T08:28:51.494Z,64.46
2019-03-30T08:31:17.714Z,64.39
2019-03-30T08:33:43.917Z,64.19
2019-03-30T08:36:10.735Z,63.25
2019-03-30T08:38:36.914Z,63.71
2019-03-30T08:41:03.164Z,64.06
2019-03-30T08:43:29.343Z,63.92
2019-03-30T08:45:55.715Z,63.00
2019-03-30T08:48:21.928Z,62.18
2019-03-30T08:50:48.230Z,61.62
2019-03-30T08:53:14.490Z,60.02
2019-03-30T08:55:40.764Z,60.74
2019-03-30T08:58:07.051Z,60.51
2019-03-30T09:00:40.958Z,59.32
2019-03-30T09:03:07.647Z,59.80
2019-03-30T09:05:33.925Z,59.34
2019-03-30T09:08:00.041Z,57.55
2019-03-30T09:10:26.840Z,57.15
2019-03-30T09:12:52.992Z,57.47
2019-03-30T09:15:19.508Z,57.03
2019-03-30T09:17:46.684Z,57.12
2019-03-30T09:20:13.286Z,56.94
2019-03-30T09:22:39.724Z,56.68
2019-03-30T09:25:06.590Z,56.86
2019-03-30T09:27:33.719Z,56.72
2019-03-30T09:30:00.355Z,56.99
2019-03-30T09:32:26.743Z,56.63
2019-03-30T09:34:53.346Z,56.17
2019-03-30T09:37:19.657Z,55.12
2019-03-30T09:39:46.044Z,53.86
2019-03-30T09:42:12.616Z,53.36
2019-03-30T09:44:38.840Z,52.73
2019-03-30T09:47:05.375Z,52.05
2019-03-30T09:49:35.458Z,52.17
2019-03-30T09:52:01.851Z,51.56
2019-03-30T09:54:28.171Z,50.69
2019-03-30T09:56:54.493Z,50.04
2019-03-30T09:59:20.715Z,50.08
2019-03-30T10:01:47.188Z,49.70
2019-03-30T10:04:13.525Z,49.10
2019-03-30T10:06:40.876Z,48.38
2019-03-30T10:09:07.276Z,47.67
2019-03-30T10:11:33.686Z,47.02
2019-03-30T10:13:59.870Z,47.89
2019-03-30T10:16:26.114Z,47.16
2019-03-30T10:18:52.237Z,47.29
2019-03-30T10:21:18.477Z,45.78
2019-03-30T10:23:44.646Z,46.35
2019-03-30T10:26:12.049Z,45.56
2019-03-30T10:28:38.409Z,44.69
2019-03-30T10:31:04.642Z,44.72
2019-03-30T10:33:30.802Z,43.92
2019-03-30T10:35:57.133Z,44.01
2019-03-30T10:38:23.321Z,44.01
2019-03-30T10:40:49.632Z,42.10
2019-03-30T10:43:15.974Z,41.70
2019-03-30T10:45:42.276Z,40.76
2019-03-30T10:48:08.577Z,39.95
2019-03-30T10:50:35.029Z,38.60
2019-03-30T10:53:01.342Z,38.44
2019-03-30T10:55:27.595Z,36.45
2019-03-30T10:57:53.866Z,35.30
2019-03-30T11:00:35.749Z,34.08
2019-03-30T11:03:02.277Z,34.40
2019-03-30T11:05:28.585Z,33.06
2019-03-30T11:07:54.697Z,32.56
2019-03-30T11:10:20.935Z,31.82
2019-03-30T11:12:47.057Z,30.82
2019-03-30T11:15:13.299Z,30.70
2019-03-30T11:17:39.563Z,29.50
2019-03-30T11:20:06.267Z,29.87
2019-03-30T11:22:32.669Z,28.34
2019-03-30T11:25:07.530Z,28.79
2019-03-30T11:27:26.948Z,28.72
2019-03-30T11:29:53.136Z,27.99
2019-03-30T11:32:19.320Z,25.81
2019-03-30T11:34:46.456Z,27.32
2019-03-30T11:37:12.911Z,26.61
2019-03-30T11:39:39.078Z,26.00
2019-03-30T11:42:05.242Z,25.41
2019-03-30T11:44:31.587Z,24.65
2019-03-30T11:46:58.009Z,24.91
2019-03-30T11:49:24.166Z,24.61
2019-03-30T11:51:50.531Z,23.90
2019-03-30T11:54:16.959Z,23.92
2019-03-30T11:56:44.214Z,23.85
2019-03-30T11:59:10.445Z,23.79
2019-03-30T12:01:36.602Z,23.30
2019-03-30T12:04:02.899Z,23.35
2019-03-30T12:06:29.065Z,23.75
2019-03-30T12:08:55.240Z,22.74
2019-03-30T12:11:21.412Z,22.34
2019-03-30T12:13:48.088Z,21.47
2019-03-30T12:16:14.433Z,21.92
2019-03-30T12:18:40.594Z,21.21
2019-03-30T12:21:06.954Z,21.67
2019-03-30T12:23:33.075Z,21.05
2019-03-30T12:25:59.321Z,21.89
2019-03-30T12:28:25.457Z,22.55
2019-03-30T12:30:52.425Z,21.28
2019-03-30T12:33:18.708Z,21.49
2019-03-30T12:35:44.884Z,21.73
2019-03-30T12:38:12.460Z,20.84
2019-03-30T12:40:38.836Z,20.76
2019-03-30T12:43:05.008Z,21.18
2019-03-30T12:45:31.332Z,20.51
2019-03-30T12:47:57.916Z,20.51
2019-03-30T12:50:24.110Z,20.17
2019-03-30T12:52:50.283Z,19.84
2019-03-30T12:55:16.693Z,20.35
2019-03-30T12:57:42.848Z,20.38
2019-03-30T13:00:09.427Z,20.57
2019-03-30T13:02:35.770Z,20.19
2019-03-30T13:05:02.383Z,20.39
2019-03-30T13:07:31.211Z,20.20
2019-03-30T13:09:58.541Z,20.51
2019-03-30T13:12:24.685Z,20.34
2019-03-30T13:14:50.910Z,20.14
2019-03-30T13:17:17.019Z,19.46
2019-03-30T13:19:43.264Z,19.67
2019-03-30T13:22:09.378Z,19.98
2019-03-30T13:24:35.607Z,20.11
2019-03-30T13:27:01.707Z,20.14
2019-03-30T13:29:28.052Z,19.72
2019-03-30T13:31:54.151Z,20.65
2019-03-30T13:34:20.667Z,19.85
2019-03-30T13:36:46.904Z,19.64
2019-03-30T13:39:13.473Z,20.24
2019-03-30T13:41:39.652Z,19.94
2019-03-30T13:44:06.400Z,19.69
2019-03-30T13:46:32.609Z,19.51
2019-03-30T13:48:58.968Z,20.10
2019-03-30T13:51:26.146Z,19.71
2019-03-30T13:53:52.499Z,19.87
2019-03-30T13:56:18.716Z,19.49
2019-03-30T13:58:44.975Z,19.42
2019-03-30T14:01:11.201Z,18.89
2019-03-30T14:03:38.594Z,19.23
2019-03-30T14:06:04.759Z,18.50
2019-03-30T14:08:30.922Z,18.04
2019-03-30T14:10:57.406Z,18.79
2019-03-30T14:13:23.627Z,18.91
2019-03-30T14:15:49.805Z,18.87
2019-03-30T14:18:16.062Z,18.86
2019-03-30T14:20:42.391Z,19.62
2019-03-30T14:23:08.620Z,20.04
2019-03-30T14:25:34.867Z,18.81
2019-03-30T14:28:01.326Z,19.42
2019-03-30T14:30:27.683Z,20.35
2019-03-30T14:32:53.965Z,20.64
2019-03-30T14:35:20.184Z,20.92
2019-03-30T14:37:46.538Z,20.49
2019-03-30T14:40:13.422Z,21.66
2019-03-30T14:42:39.702Z,21.96
2019-03-30T14:45:07.216Z,23.34
2019-03-30T14:47:33.501Z,23.80
2019-03-30T14:50:02.283Z,23.57
2019-03-30T14:52:28.721Z,23.84
2019-03-30T14:54:54.978Z,23.67
2019-03-30T14:57:21.164Z,23.24
2019-03-30T14:59:47.376Z,23.55
2019-03-30T15:02:13.548Z,24.10
2019-03-30T15:04:39.809Z,23.81
2019-03-30T15:07:06.187Z,23.76
2019-03-30T15:09:32.486Z,25.18
2019-03-30T15:11:58.724Z,25.64
2019-03-30T15:14:24.869Z,26.13
2019-03-30T15:16:51.099Z,26.31
2019-03-30T15:19:17.291Z,27.67
2019-03-30T15:21:46.546Z,27.82
2019-03-30T15:24:14.794Z,28.40
2019-03-30T15:26:41.079Z,28.90
2019-03-30T15:29:07.618Z,29.31
2019-03-30T15:31:34.234Z,29.21
2019-03-30T15:34:00.400Z,29.38
2019-03-30T15:36:26.630Z,29.65
2019-03-30T15:38:52.804Z,30.18
2019-03-30T15:41:19.069Z,30.25
2019-03-30T15:43:45.197Z,30.46
2019-03-30T15:46:14.229Z,30.88
2019-03-30T15:48:39.732Z,31.32
2019-03-30T15:51:09.520Z,32.20
2019-03-30T15:53:35.892Z,32.03
2019-03-30T15:56:02.249Z,32.36
2019-03-30T15:58:28.485Z,32.88
2019-03-30T16:00:54.842Z,32.81
2019-03-30T16:03:21.067Z,33.81
2019-03-30T16:05:47.269Z,33.81
2019-03-30T16:08:13.574Z,34.33
2019-03-30T16:10:39.734Z,34.02
2019-03-30T16:13:06.133Z,34.61
2019-03-30T16:15:32.346Z,33.75
2019-03-30T16:17:58.623Z,34.38
2019-03-30T16:20:24.999Z,34.48
2019-03-30T16:22:51.549Z,34.11
2019-03-30T16:25:17.834Z,34.72
2019-03-30T16:27:44.173Z,34.83
2019-03-30T16:30:11.057Z,34.90
2019-03-30T16:32:37.285Z,34.83
2019-03-30T16:35:04.055Z,35.19
2019-03-30T16:37:30.310Z,35.56
2019-03-30T16:39:58.369Z,36.02
2019-03-30T16:42:24.575Z,35.63
2019-03-30T16:44:50.783Z,35.64
2019-03-30T16:47:16.967Z,35.79
2019-03-30T16:49:43.201Z,36.11
2019-03-30T16:52:09.307Z,36.34
2019-03-30T16:54:35.507Z,36.46
2019-03-30T16:57:01.616Z,36.73
2019-03-30T16:59:28.215Z,36.91
2019-03-30T17:01:54.518Z,37.05
2019-03-30T17:04:20.820Z,37.53
2019-03-30T17:06:47.304Z,37.97
2019-03-30T17:09:13.714Z,37.95
2019-03-30T17:11:39.886Z,37.97
2019-03-30T17:14:06.172Z,38.27
2019-03-30T17:16:32.496Z,40.05
2019-03-30T17:18:58.716Z,39.89
2019-03-30T17:21:24.828Z,39.98
2019-03-30T17:23:52.567Z,40.52
2019-03-30T17:26:19.082Z,40.94
2019-03-30T17:28:45.294Z,40.87
2019-03-30T17:31:11.641Z,40.99
2019-03-30T17:33:37.922Z,41.49
2019-03-30T17:36:04.419Z,41.71
2019-03-30T17:38:30.649Z,42.36
2019-03-30T17:40:56.935Z,42.79
2019-03-30T17:43:23.193Z,43.74
2019-03-30T17:45:49.412Z,44.71
2019-03-30T17:48:15.744Z,44.68
2019-03-30T17:50:42.128Z,44.85
2019-03-30T17:53:08.294Z,45.35
2019-03-30T17:55:34.676Z,46.39
2019-03-30T17:58:12.342Z,46.22
2019-03-30T18:00:29.381Z,47.09
2019-03-30T18:02:55.538Z,47.56
2019-03-30T18:05:22.858Z,48.16
2019-03-30T18:07:49.083Z,47.54
2019-03-30T18:10:15.744Z,47.27
2019-03-30T18:12:42.002Z,47.51
2019-03-30T18:15:08.770Z,47.94
2019-03-30T18:17:35.064Z,47.96
2019-03-30T18:20:01.602Z,48.99
2019-03-30T18:22:29.156Z,49.31
2019-03-30T18:24:55.357Z,49.24
2019-03-30T18:27:21.661Z,49.32
2019-03-30T18:29:49.047Z,49.70
2019-03-30T18:32:15.423Z,48.91
2019-03-30T18:34:42.160Z,49.57
2019-03-30T18:37:08.929Z,49.69
2019-03-30T18:39:35.137Z,49.20
2019-03-30T18:42:01.360Z,49.35
2019-03-30T18:44:27.592Z,49.22
2019-03-30T18:46:53.766Z,49.10
2019-03-30T18:49:20.078Z,49.30
2019-03-30T18:51:48.238Z,48.33
2019-03-30T18:54:15.448Z,48.17
2019-03-30T18:56:41.595Z,48.32
2019-03-30T18:59:07.920Z,48.44
2019-03-30T19:01:34.513Z,48.72
2019-03-30T19:04:00.833Z,48.29
2019-03-30T19:06:27.078Z,47.76
2019-03-30T19:08:53.309Z,48.13
2019-03-30T19:11:19.614Z,48.41
2019-03-30T19:13:45.955Z,48.20
2019-03-30T19:16:12.189Z,48.21
2019-03-30T19:18:38.464Z,48.33
2019-03-30T19:21:04.570Z,48.56
2019-03-30T19:23:30.882Z,48.58
2019-03-30T19:25:57.205Z,48.97
2019-03-30T19:28:23.548Z,48.91
2019-03-30T19:30:49.857Z,48.89
2019-03-30T19:33:16.143Z,49.33
2019-03-30T19:35:42.414Z,49.45
2019-03-30T19:38:10.931Z,49.88
2019-03-30T19:40:36.656Z,49.68
2019-03-30T19:43:02.937Z,49.89
2019-03-30T19:45:29.559Z,50.07
2019-03-30T19:47:55.757Z,50.22
2019-03-30T19:50:22.076Z,50.27
2019-03-30T19:52:48.174Z,50.81
2019-03-30T19:55:14.518Z,51.16
2019-03-30T19:57:40.619Z,51.13
2019-03-30T20:00:10.133Z,50.90
2019-03-30T20:02:36.424Z,51.13
2019-03-30T20:05:05.143Z,51.40
2019-03-30T20:07:31.630Z,51.49
2019-03-30T20:09:58.851Z,51.66
2019-03-30T20:12:25.349Z,51.91
2019-03-30T20:14:51.648Z,51.99
2019-03-30T20:17:17.873Z,52.30
2019-03-30T20:19:44.003Z,52.88
2019-03-30T20:22:10.293Z,53.04
2019-03-30T20:24:36.456Z,52.99
2019-03-30T20:27:03.323Z,52.89
2019-03-30T20:29:29.493Z,53.15
2019-03-30T20:31:55.676Z,52.83
2019-03-30T20:34:21.934Z,53.03
2019-03-30T20:36:48.164Z,53.37
2019-03-30T20:39:14.275Z,53.29
2019-03-30T20:41:40.778Z,53.35
2019-03-30T20:44:07.465Z,53.46
2019-03-30T20:46:33.586Z,53.82
2019-03-30T20:48:59.806Z,54.27
2019-03-30T20:51:25.936Z,54.31
2019-03-30T20:53:52.167Z,54.41
2019-03-30T20:56:18.302Z,55.13
2019-03-30T20:58:44.520Z,54.56
2019-03-30T21:01:10.680Z,54.80
2019-03-30T21:03:36.952Z,54.90
2019-03-30T21:06:03.414Z,54.86
2019-03-30T21:08:29.653Z,54.85
2019-03-30T21:10:55.767Z,54.88
2019-03-30T21:13:21.983Z,54.80
2019-03-30T21:15:48.096Z,54.82
2019-03-30T21:18:14.343Z,54.75
2019-03-30T21:20:40.450Z,54.64
2019-03-30T21:23:06.667Z,54.79
2019-03-30T21:25:33.865Z,54.52
2019-03-30T21:28:00.653Z,54.29
2019-03-30T21:30:26.858Z,54.47
2019-03-30T21:32:53.078Z,54.84
2019-03-30T21:35:19.186Z,55.22
2019-03-30T21:37:45.390Z,55.23
2019-03-30T21:40:11.492Z,55.32
2019-03-30T21:42:37.722Z,55.49
2019-03-30T21:45:06.070Z,55.67
2019-03-30T21:47:32.360Z,55.43
2019-03-30T21:49:58.661Z,55.61
2019-03-30T21:52:24.895Z,55.96
2019-03-30T21:54:51.010Z,56.04
2019-03-30T21:57:17.216Z,56.02
2019-03-30T21:59:43.370Z,56.05
2019-03-30T22:02:09.600Z,56.29
2019-03-30T22:04:35.745Z,56.02
2019-03-30T22:07:02.111Z,56.22
2019-03-30T22:09:28.833Z,56.12
2019-03-30T22:11:54.992Z,56.04
2019-03-30T22:14:21.444Z,56.24
2019-03-30T22:16:47.741Z,56.35
2019-03-30T22:19:14.019Z,56.64
2019-03-30T22:21:40.137Z,56.56
2019-03-30T22:24:06.372Z,56.67
2019-03-30T22:26:32.467Z,56.73
2019-03-30T22:28:58.674Z,56.63
2019-03-30T22:31:24.804Z,56.97
2019-03-30T22:33:51.033Z,56.58
2019-03-30T22:36:17.260Z,56.71
2019-03-30T22:38:43.451Z,56.23
2019-03-30T22:41:09.642Z,56.51
2019-03-30T22:43:35.792Z,56.79
2019-03-30T22:46:01.962Z,57.46
2019-03-30T22:48:28.061Z,56.99
2019-03-30T22:50:54.266Z,57.48
2019-03-30T22:53:20.400Z,57.32
2019-03-30T22:55:46.507Z,57.14
2019-03-30T22:58:12.707Z,57.31
2019-03-30T23:00:41.087Z,57.28
2019-03-30T23:03:10.061Z,57.54
2019-03-30T23:05:36.329Z,57.49
2019-03-30T23:08:03.671Z,57.22
2019-03-30T23:10:29.926Z,57.21
2019-03-30T23:12:56.091Z,57.21
2019-03-30T23:15:24.206Z,57.13
2019-03-30T23:17:50.452Z,57.77
2019-03-30T23:20:16.646Z,57.13
2019-03-30T23:22:42.802Z,57.22
2019-03-30T23:25:09.260Z,57.35
2019-03-30T23:27:35.646Z,57.33
2019-03-30T23:30:03.396Z,57.17
2019-03-30T23:32:29.693Z,57.07
2019-03-30T23:34:56.155Z,57.07
2019-03-30T23:37:22.571Z,57.13
2019-03-30T23:39:48.689Z,57.20
2019-03-30T23:42:14.952Z,57.22
2019-03-30T23:44:41.272Z,57.39
2019-03-30T23:47:08.635Z,57.15
2019-03-30T23:49:34.869Z,57.15
2019-03-30T23:52:01.056Z,56.96
2019-03-30T23:54:27.225Z,57.07
2019-03-30T23:56:53.403Z,56.99
2019-03-30T23:59:19.581Z,57.31
